ADDS METAR Data INFO
IDs: Format: Raw Decoded Include TAF

Data at: 0759 UTC 23 Jul 2018

KGYY 230735Z AUTO 32011G16KT 10SM BKN015 OVC065 21/20 A2991 RMK AO2 T02070200
KGYY 230715Z AUTO 34005KT 10SM RA SCT017 SCT025 BKN065 20/19 A2992 RMK AO2 T02000193
KGYY 230655Z AUTO 35004KT 7SM RA SCT006 SCT014 BKN049 20/19 A2992 RMK AO2 T01980191
KGYY 230635Z AUTO 36003KT 3SM +RA SCT009 OVC025 20/19 A2992 RMK AO2 T02030194
KGYY 230615Z AUTO 31006KT 7SM RA SCT026 BKN036 OVC060 22/21 A2991 RMK AO2 T02150205
KGYY 230555Z AUTO 26003KT 10SM SCT036 SCT042 OVC050 21/20 A2991 RMK AO2 T02140204 10226 20212 402510205
KGYY 230535Z AUTO 00000KT 10SM OVC055 22/20 A2992 RMK AO2 T02150199
KGYY 230515Z AUTO 00000KT 10SM OVC065 22/20 A2993 RMK AO2 T02160195
KGYY 230455Z AUTO 32004KT 10SM BKN060 OVC075 22/20 A2993 RMK AO2 T02160197
KGYY 230435Z AUTO 01003KT 7SM BKN070 OVC075 22/20 A2993 RMK AO2 T02160197
KGYY 230415Z AUTO 36004KT 10SM SCT065 OVC080 22/21 A2994 RMK AO2 T02150206
KGYY 230355Z AUTO 35004KT 7SM OVC080 22/21 A2994 RMK AO2 T02150207
KGYY 230335Z AUTO 35003KT 5SM BR BKN085 21/21 A2994 RMK AO2 T02120206
KGYY 230315Z AUTO 35005KT 7SM CLR 22/21 A2995 RMK AO2 T02150208
KGYY 230245Z 35008KT 7SM SCT008 SCT055 22/21 A2995
KGYY 230145Z 35012KT 10SM SCT008 SCT055 22/21 A2992
KGYY 230045Z 36010G20KT 10SM SCT008 SCT055 22/21 A2991
KGYY 222345Z 35015G25KT 7SM BKN010 BKN055 23/21 A2990
KGYY 222245Z 36012G23KT 7SM BKN010 OVC055 23/21 A2989
KGYY 222145Z 36013G25KT 7SM SCT009 BKN025 24/21 A2988
KGYY 222045Z 36015G21KT 7SM SCT009 BKN014 24/21 A2987
KGYY 221945Z 35012KT 7SM SCT009 BKN030 25/22 A2986
KGYY 221845Z 02009KT 7SM BKN010 OVC030 25/22 A2985
KGYY 221745Z 03011KT 7SM BKN015 OVC025 25/22 A2985
KGYY 221645Z 33005KT 7SM BKN010 OVC023 24/22 A2986
KGYY 221545Z 01009KT 7SM BKN010 OVC023 23/23 A2986 RMK RAE32
KGYY 221445Z 36007KT 4SM -RA OVC010 22/22 A2985
KGYY 221345Z 36010KT 5SM -RA BKN009 OVC024 22/22 A2984
KGYY 221245Z 35009KT 3SM -RA BKN005 OVC010 21/21 A2983
KGYY 221145Z 35009KT 4SM -RA OVC013 21/21 A2982 RMK RAB40
KGYY 221045Z 36009KT 7SM OVC008 22/21 A2981
KGYY 220945Z 01006KT 10SM OVC008 22/21 A2979
KGYY 220915Z AUTO 36010G14KT 10SM SCT010 SCT018 BKN027 22/21 A2979 RMK AO2 T02170211
KGYY 220855Z AUTO 36009KT 7SM SCT010 SCT016 BKN025 22/21 A2979 RMK AO2 60002 T02170211
KGYY 220835Z AUTO 36008KT 10SM BKN011 BKN014 OVC036 22/21 A2979 RMK AO2 T02170210
KGYY 220815Z AUTO 01005KT 10SM BKN011 BKN020 OVC045 22/21 A2979 RMK AO2 T02170210
KGYY 220755Z AUTO 01009KT 10SM SCT011 BKN044 OVC050 22/21 A2979 RMK AO2 T02160210
KGYY 220735Z AUTO 01009KT 10SM SCT013 BKN025 OVC070 22/21 A2979 RMK AO2 T02170210
KGYY 220715Z AUTO 01009G14KT 10SM SCT009 BKN016 OVC024 22/21 A2979 RMK AO2 T02170210
KGYY 220655Z AUTO 02009KT 10SM SCT009 BKN013 BKN027 22/21 A2979 RMK AO2 P0002 T02180212
KGYY 220635Z AUTO 03008KT 7SM -RA SCT011 SCT016 BKN031 22/21 A2979 RMK AO2 P0002 T02160210
KGYY 220615Z AUTO 02007KT 10SM SCT009 SCT017 BKN039 22/21 A2979 RMK AO2 T02150207
KGYY 220555Z AUTO 02007KT 10SM BKN009 BKN017 OVC029 22/21 A2979 RMK AO2 T02160210 10225 20212 402290207
KGYY 220535Z AUTO 36010G15KT 7SM -RA BKN011 BKN021 OVC029 22/21 A2979 RMK AO2 T02200209
KGYY 220515Z AUTO 34010KT 10SM BKN013 BKN020 OVC065 22/21 A2979 RMK AO2 T02200207
KGYY 220455Z AUTO 35013KT 10SM SCT009 BKN041 BKN050 22/21 A2979 RMK AO2 T02170208
KGYY 220435Z AUTO 35012KT 10SM BKN009 BKN021 OVC043 22/21 A2979 RMK AO2 T02200213
KGYY 220415Z AUTO 35014G17KT 10SM BKN009 OVC016 22/21 A2979 RMK AO2 T02180212
KGYY 220355Z AUTO 33009KT 10SM BKN007 OVC011 21/21 A2980 RMK AO2 T02130208
KGYY 220335Z AUTO 33008G15KT 7SM BKN007 OVC010 21/21 A2980 RMK AO2 T02120206
KGYY 220315Z AUTO 32010KT 10SM BKN007 OVC011 21/21 A2980 RMK AO2 T02120206
KGYY 220245Z 34014KT 10SM BKN010 OVC030 21/21 A2981
KGYY 220145Z 33020KT 10SM BKN010 OVC030 22/21 A2980
KGYY 220045Z 33017KT 10SM SCT015 SCT030 22/20 A2979
KGYY 212345Z 34017KT 7SM OVC015 23/20 A2979
KGYY 212245Z 34017KT 7SM OVC010 23/20 A2980
KGYY 212145Z 34020KT 7SM OVC010 23/20 A2979 RMK RAE39
KGYY 212045Z 34012G18KT 3SM -RA OVC009 22/21 A2978